sensor_id;sensor_type;location;lat;lon;timestamp;pressure;altitude;pressure_sealevel;temperature;humidity
54876;BME280;40764;48.472;8.166;2023-04-29T00:05:02;97942.16;;;13.20;100.00
54876;BME280;40764;48.472;8.166;2023-04-29T00:11:03;97951.16;;;13.12;100.00
54876;BME280;40764;48.472;8.166;2023-04-29T00:17:04;97948.09;;;13.13;100.00
54876;BME280;40764;48.472;8.166;2023-04-29T00:23:05;97946.94;;;13.06;100.00
54876;BME280;40764;48.472;8.166;2023-04-29T00:29:06;97956.13;;;13.01;100.00
54876;BME280;40764;48.472;8.166;2023-04-29T00:35:06;97949.50;;;13.02;100.00
54876;BME280;40764;48.472;8.166;2023-04-29T00:41:07;97953.56;;;13.13;100.00
54876;BME280;40764;48.472;8.166;2023-04-29T00:47:08;97943.25;;;13.10;100.00
54876;BME280;40764;48.472;8.166;2023-04-29T00:53:12;97949.69;;;13.14;100.00
54876;BME280;40764;48.472;8.166;2023-04-29T00:59:13;97949.59;;;13.19;100.00
54876;BME280;40764;48.472;8.166;2023-04-29T01:05:16;97946.78;;;13.02;100.00
54876;BME280;40764;48.472;8.166;2023-04-29T01:11:21;97954.69;;;13.12;100.00
54876;BME280;40764;48.472;8.166;2023-04-29T01:17:24;97955.03;;;13.11;100.00
54876;BME280;40764;48.472;8.166;2023-04-29T01:23:29;97957.53;;;12.98;100.00
54876;BME280;40764;48.472;8.166;2023-04-29T01:36:18;97956.13;;;13.01;100.00
54876;BME280;40764;48.472;8.166;2023-04-29T01:42:36;97948.06;;;13.05;100.00
54876;BME280;40764;48.472;8.166;2023-04-29T01:48:38;97950.44;;;12.97;100.00
54876;BME280;40764;48.472;8.166;2023-04-29T01:54:39;97948.19;;;12.99;100.00
54876;BME280;40764;48.472;8.166;2023-04-29T02:00:40;97946.25;;;13.00;100.00
54876;BME280;40764;48.472;8.166;2023-04-29T02:06:41;97946.78;;;13.11;100.00
54876;BME280;40764;48.472;8.166;2023-04-29T02:12:41;97956.47;;;13.08;100.00
54876;BME280;40764;48.472;8.166;2023-04-29T02:18:42;97951.53;;;13.19;100.00
54876;BME280;40764;48.472;8.166;2023-04-29T02:24:42;97951.84;;;13.17;100.00
54876;BME280;40764;48.472;8.166;2023-04-29T02:30:43;97957.28;;;13.09;100.00
54876;BME280;40764;48.472;8.166;2023-04-29T02:36:43;97959.56;;;13.15;100.00
54876;BME280;40764;48.472;8.166;2023-04-29T02:42:44;97977.19;;;13.23;100.00
54876;BME280;40764;48.472;8.166;2023-04-29T02:48:44;97974.94;;;13.25;100.00
54876;BME280;40764;48.472;8.166;2023-04-29T02:54:44;97975.41;;;13.18;100.00
54876;BME280;40764;48.472;8.166;2023-04-29T03:00:45;97979.91;;;13.14;100.00
54876;BME280;40764;48.472;8.166;2023-04-29T03:06:45;97988.00;;;13.19;100.00
54876;BME280;40764;48.472;8.166;2023-04-29T03:12:46;97988.34;;;13.26;100.00
54876;BME280;40764;48.472;8.166;2023-04-29T03:18:46;97998.41;;;13.40;100.00
54876;BME280;40764;48.472;8.166;2023-04-29T03:24:46;97989.38;;;13.39;100.00
54876;BME280;40764;48.472;8.166;2023-04-29T03:30:47;97979.19;;;13.40;100.00
54876;BME280;40764;48.472;8.166;2023-04-29T03:36:47;97981.94;;;13.40;100.00
54876;BME280;40764;48.472;8.166;2023-04-29T03:42:48;97982.69;;;13.23;100.00
54876;BME280;40764;48.472;8.166;2023-04-29T03:48:48;97991.41;;;13.25;100.00
54876;BME280;40764;48.472;8.166;2023-04-29T03:54:50;97986.81;;;13.12;100.00
54876;BME280;40764;48.472;8.166;2023-04-29T04:00:50;97988.41;;;13.04;100.00
54876;BME280;40764;48.472;8.166;2023-04-29T04:06:51;97996.56;;;12.87;100.00
54876;BME280;40764;48.472;8.166;2023-04-29T04:12:51;98008.47;;;12.82;100.00
54876;BME280;40764;48.472;8.166;2023-04-29T04:18:51;98019.44;;;12.82;100.00
54876;BME280;40764;48.472;8.166;2023-04-29T04:24:55;98019.59;;;12.77;100.00
54876;BME280;40764;48.472;8.166;2023-04-29T04:30:56;98037.97;;;12.77;100.00
54876;BME280;40764;48.472;8.166;2023-04-29T04:36:56;98043.69;;;12.66;100.00
54876;BME280;40764;48.472;8.166;2023-04-29T04:42:56;98048.19;;;12.62;100.00
54876;BME280;40764;48.472;8.166;2023-04-29T04:48:57;98046.06;;;12.59;100.00
54876;BME280;40764;48.472;8.166;2023-04-29T04:54:57;98055.59;;;12.62;100.00
54876;BME280;40764;48.472;8.166;2023-04-29T05:01:01;98070.31;;;12.44;100.00
54876;BME280;40764;48.472;8.166;2023-04-29T05:07:01;98073.50;;;12.59;100.00
54876;BME280;40764;48.472;8.166;2023-04-29T05:13:01;98073.84;;;12.66;100.00
54876;BME280;40764;48.472;8.166;2023-04-29T05:19:02;98074.44;;;12.55;100.00
54876;BME280;40764;48.472;8.166;2023-04-29T05:25:02;98072.94;;;12.49;100.00
54876;BME280;40764;48.472;8.166;2023-04-29T05:31:02;98089.31;;;12.62;100.00
54876;BME280;40764;48.472;8.166;2023-04-29T05:37:03;98100.59;;;12.61;100.00
54876;BME280;40764;48.472;8.166;2023-04-29T05:43:03;98103.91;;;12.71;100.00
54876;BME280;40764;48.472;8.166;2023-04-29T05:49:03;98116.25;;;12.60;100.00
54876;BME280;40764;48.472;8.166;2023-04-29T05:55:04;98124.22;;;12.70;100.00
54876;BME280;40764;48.472;8.166;2023-04-29T06:01:04;98134.81;;;12.63;100.00
54876;BME280;40764;48.472;8.166;2023-04-29T06:07:05;98138.25;;;12.69;100.00
54876;BME280;40764;48.472;8.166;2023-04-29T06:13:08;98143.56;;;13.10;100.00
54876;BME280;40764;48.472;8.166;2023-04-29T06:19:08;98150.63;;;13.02;100.00
54876;BME280;40764;48.472;8.166;2023-04-29T06:25:09;98154.34;;;13.29;100.00
54876;BME280;40764;48.472;8.166;2023-04-29T06:31:09;98154.78;;;13.22;99.64
54876;BME280;40764;48.472;8.166;2023-04-29T06:37:10;98171.19;;;13.14;99.73
54876;BME280;40764;48.472;8.166;2023-04-29T06:43:10;98171.50;;;12.90;96.99
54876;BME280;40764;48.472;8.166;2023-04-29T06:49:10;98170.25;;;12.96;100.00
54876;BME280;40764;48.472;8.166;2023-04-29T06:55:11;98180.97;;;12.84;97.76
54876;BME280;40764;48.472;8.166;2023-04-29T07:01:11;98185.34;;;12.85;97.39
54876;BME280;40764;48.472;8.166;2023-04-29T07:07:12;98183.44;;;12.71;98.59
54876;BME280;40764;48.472;8.166;2023-04-29T07:13:12;98186.38;;;12.97;97.37
54876;BME280;40764;48.472;8.166;2023-04-29T07:19:12;98190.81;;;12.85;97.03
54876;BME280;40764;48.472;8.166;2023-04-29T07:25:13;98198.75;;;13.09;96.24
54876;BME280;40764;48.472;8.166;2023-04-29T07:31:13;98202.34;;;13.31;95.15
54876;BME280;40764;48.472;8.166;2023-04-29T07:37:13;98202.72;;;13.39;94.56
54876;BME280;40764;48.472;8.166;2023-04-29T07:43:14;98208.38;;;13.42;91.57
54876;BME280;40764;48.472;8.166;2023-04-29T07:49:14;98214.00;;;13.59;92.09
54876;BME280;40764;48.472;8.166;2023-04-29T07:55:15;98218.34;;;13.60;90.99
54876;BME280;40764;48.472;8.166;2023-04-29T08:01:15;98224.34;;;13.93;89.10
54876;BME280;40764;48.472;8.166;2023-04-29T08:07:16;98227.06;;;14.42;85.66
54876;BME280;40764;48.472;8.166;2023-04-29T08:13:17;98227.97;;;14.68;84.70
54876;BME280;40764;48.472;8.166;2023-04-29T08:19:17;98231.09;;;14.75;83.52
54876;BME280;40764;48.472;8.166;2023-04-29T08:25:17;98229.16;;;14.36;83.73
54876;BME280;40764;48.472;8.166;2023-04-29T08:31:19;98245.16;;;14.25;84.82
54876;BME280;40764;48.472;8.166;2023-04-29T08:37:20;98237.34;;;14.59;84.51
54876;BME280;40764;48.472;8.166;2023-04-29T08:43:21;98237.19;;;14.64;83.47
54876;BME280;40764;48.472;8.166;2023-04-29T08:49:21;98238.50;;;14.66;80.92
54876;BME280;40764;48.472;8.166;2023-04-29T08:55:23;98236.75;;;14.96;82.00
54876;BME280;40764;48.472;8.166;2023-04-29T09:01:27;98236.59;;;14.84;81.99
54876;BME280;40764;48.472;8.166;2023-04-29T09:07:30;98230.59;;;15.25;80.76
54876;BME280;40764;48.472;8.166;2023-04-29T09:13:31;98249.88;;;14.91;77.32
54876;BME280;40764;48.472;8.166;2023-04-29T09:19:33;98244.34;;;14.99;77.87
54876;BME280;40764;48.472;8.166;2023-04-29T09:25:33;98245.50;;;14.81;76.29
54876;BME280;40764;48.472;8.166;2023-04-29T09:31:39;98249.22;;;14.94;73.88
54876;BME280;40764;48.472;8.166;2023-04-29T09:37:39;98253.44;;;14.91;74.10
54876;BME280;40764;48.472;8.166;2023-04-29T09:43:41;98251.81;;;14.99;75.11
54876;BME280;40764;48.472;8.166;2023-04-29T09:49:42;98249.56;;;15.18;72.74
54876;BME280;40764;48.472;8.166;2023-04-29T09:55:58;98255.56;;;15.63;71.04
54876;BME280;40764;48.472;8.166;2023-04-29T10:01:59;98263.75;;;15.98;68.99
54876;BME280;40764;48.472;8.166;2023-04-29T10:08:00;98259.41;;;16.26;67.77
54876;BME280;40764;48.472;8.166;2023-04-29T10:14:03;98241.28;;;16.17;68.01
54876;BME280;40764;48.472;8.166;2023-04-29T10:20:05;98252.50;;;16.11;66.76
54876;BME280;40764;48.472;8.166;2023-04-29T10:26:06;98241.88;;;16.31;67.22
54876;BME280;40764;48.472;8.166;2023-04-29T10:32:12;98240.91;;;16.27;66.77
54876;BME280;40764;48.472;8.166;2023-04-29T10:38:26;98246.63;;;16.13;66.79
54876;BME280;40764;48.472;8.166;2023-04-29T10:44:27;98227.41;;;16.63;64.51
54876;BME280;40764;48.472;8.166;2023-04-29T10:56:52;98236.44;;;16.43;65.74
54876;BME280;40764;48.472;8.166;2023-04-29T11:02:53;98225.03;;;16.53;64.40
54876;BME280;40764;48.472;8.166;2023-04-29T11:15:01;98214.94;;;16.57;64.90
54876;BME280;40764;48.472;8.166;2023-04-29T11:21:10;98228.41;;;16.29;66.09
54876;BME280;40764;48.472;8.166;2023-04-29T11:27:11;98227.72;;;16.03;66.42
54876;BME280;40764;48.472;8.166;2023-04-29T11:33:12;98234.31;;;16.19;65.54
54876;BME280;40764;48.472;8.166;2023-04-29T11:39:12;98234.03;;;16.71;63.76
54876;BME280;40764;48.472;8.166;2023-04-29T11:45:13;98242.78;;;16.05;65.03
54876;BME280;40764;48.472;8.166;2023-04-29T11:51:15;98245.63;;;16.26;64.34
54876;BME280;40764;48.472;8.166;2023-04-29T11:57:16;98244.69;;;16.52;63.09
54876;BME280;40764;48.472;8.166;2023-04-29T12:03:18;98231.59;;;16.78;63.08
54876;BME280;40764;48.472;8.166;2023-04-29T12:09:19;98248.75;;;16.54;64.31
54876;BME280;40764;48.472;8.166;2023-04-29T12:15:20;98239.19;;;16.43;63.68
54876;BME280;40764;48.472;8.166;2023-04-29T12:21:21;98250.34;;;16.26;63.58
54876;BME280;40764;48.472;8.166;2023-04-29T12:27:22;98248.53;;;16.30;62.11
54876;BME280;40764;48.472;8.166;2023-04-29T12:33:25;98233.00;;;16.55;60.63
54876;BME280;40764;48.472;8.166;2023-04-29T12:39:26;98240.31;;;16.21;62.32
54876;BME280;40764;48.472;8.166;2023-04-29T12:45:32;98237.63;;;16.63;60.41
54876;BME280;40764;48.472;8.166;2023-04-29T12:51:34;98231.97;;;16.89;61.49
54876;BME280;40764;48.472;8.166;2023-04-29T12:57:35;98235.31;;;16.73;64.31
54876;BME280;40764;48.472;8.166;2023-04-29T13:03:36;98238.78;;;16.62;60.48
54876;BME280;40764;48.472;8.166;2023-04-29T13:09:37;98233.47;;;16.86;58.83
54876;BME280;40764;48.472;8.166;2023-04-29T13:15:40;98235.09;;;16.87;59.46
54876;BME280;40764;48.472;8.166;2023-04-29T13:21:41;98236.91;;;16.83;59.72
54876;BME280;40764;48.472;8.166;2023-04-29T13:27:41;98237.56;;;16.80;59.54
54876;BME280;40764;48.472;8.166;2023-04-29T13:33:43;98235.75;;;16.55;60.20
54876;BME280;40764;48.472;8.166;2023-04-29T13:39:43;98247.41;;;16.60;60.00
54876;BME280;40764;48.472;8.166;2023-04-29T13:45:43;98247.75;;;16.88;59.03
54876;BME280;40764;48.472;8.166;2023-04-29T13:51:44;98238.72;;;17.00;58.64
54876;BME280;40764;48.472;8.166;2023-04-29T13:57:44;98243.72;;;17.07;58.86
54876;BME280;40764;48.472;8.166;2023-04-29T14:03:45;98246.72;;;16.63;61.29
54876;BME280;40764;48.472;8.166;2023-04-29T14:09:45;98254.03;;;16.68;61.46
54876;BME280;40764;48.472;8.166;2023-04-29T14:15:45;98258.28;;;16.57;62.20
54876;BME280;40764;48.472;8.166;2023-04-29T14:21:46;98257.94;;;16.29;63.86
54876;BME280;40764;48.472;8.166;2023-04-29T14:27:46;98258.91;;;16.33;64.76
54876;BME280;40764;48.472;8.166;2023-04-29T14:33:48;98260.84;;;16.32;64.49
54876;BME280;40764;48.472;8.166;2023-04-29T14:39:50;98271.53;;;16.34;64.19
54876;BME280;40764;48.472;8.166;2023-04-29T14:45:50;98266.81;;;16.72;63.21
54876;BME280;40764;48.472;8.166;2023-04-29T14:51:50;98279.16;;;16.75;62.71
54876;BME280;40764;48.472;8.166;2023-04-29T14:57:51;98279.47;;;16.73;63.10
54876;BME280;40764;48.472;8.166;2023-04-29T15:03:51;98267.28;;;16.75;62.99
54876;BME280;40764;48.472;8.166;2023-04-29T15:09:51;98268.84;;;17.14;61.26
54876;BME280;40764;48.472;8.166;2023-04-29T15:15:52;98268.34;;;17.86;59.13
54876;BME280;40764;48.472;8.166;2023-04-29T15:21:52;98264.44;;;18.33;57.10
54876;BME280;40764;48.472;8.166;2023-04-29T15:27:52;98268.38;;;18.68;57.14
54876;BME280;40764;48.472;8.166;2023-04-29T15:33:53;98265.44;;;17.50;62.22
54876;BME280;40764;48.472;8.166;2023-04-29T15:39:54;98267.78;;;16.77;65.58
54876;BME280;40764;48.472;8.166;2023-04-29T15:45:55;98275.06;;;16.43;67.02
54876;BME280;40764;48.472;8.166;2023-04-29T15:51:57;98286.88;;;16.52;66.54
54876;BME280;40764;48.472;8.166;2023-04-29T15:57:57;98282.31;;;16.56;66.06
54876;BME280;40764;48.472;8.166;2023-04-29T16:03:58;98281.59;;;17.60;62.58
54876;BME280;40764;48.472;8.166;2023-04-29T16:09:58;98271.69;;;16.37;66.38
54876;BME280;40764;48.472;8.166;2023-04-29T16:15:59;98265.06;;;16.68;66.63
54876;BME280;40764;48.472;8.166;2023-04-29T16:21:59;98278.69;;;16.35;66.12
54876;BME280;40764;48.472;8.166;2023-04-29T16:28:00;98288.63;;;16.27;66.13
54876;BME280;40764;48.472;8.166;2023-04-29T16:34:00;98282.31;;;16.18;66.27
54876;BME280;40764;48.472;8.166;2023-04-29T16:40:02;98289.53;;;15.85;67.82
54876;BME280;40764;48.472;8.166;2023-04-29T16:46:03;98288.06;;;15.96;68.19
54876;BME280;40764;48.472;8.166;2023-04-29T16:52:03;98287.78;;;15.71;69.33
54876;BME280;40764;48.472;8.166;2023-04-29T16:58:04;98289.06;;;15.13;71.77
54876;BME280;40764;48.472;8.166;2023-04-29T17:04:04;98295.09;;;15.33;71.97
54876;BME280;40764;48.472;8.166;2023-04-29T17:10:06;98298.50;;;15.38;72.06
54876;BME280;40764;48.472;8.166;2023-04-29T17:16:07;98295.72;;;15.30;72.93
54876;BME280;40764;48.472;8.166;2023-04-29T17:22:07;98290.84;;;15.09;74.64
54876;BME280;40764;48.472;8.166;2023-04-29T17:28:07;98302.31;;;14.77;76.56
54876;BME280;40764;48.472;8.166;2023-04-29T17:34:08;98309.28;;;14.83;75.91
54876;BME280;40764;48.472;8.166;2023-04-29T17:40:17;98308.91;;;14.67;76.86
54876;BME280;40764;48.472;8.166;2023-04-29T17:46:17;98310.38;;;14.34;78.99
54876;BME280;40764;48.472;8.166;2023-04-29T17:52:18;98314.06;;;14.29;79.84
54876;BME280;40764;48.472;8.166;2023-04-29T17:58:20;98311.94;;;14.17;80.37
54876;BME280;40764;48.472;8.166;2023-04-29T18:04:20;98316.84;;;14.07;81.71
54876;BME280;40764;48.472;8.166;2023-04-29T18:10:21;98329.94;;;14.01;82.23
54876;BME280;40764;48.472;8.166;2023-04-29T18:16:21;98321.50;;;13.98;82.51
54876;BME280;40764;48.472;8.166;2023-04-29T18:22:21;98330.13;;;13.82;83.52
54876;BME280;40764;48.472;8.166;2023-04-29T18:28:22;98326.06;;;13.80;83.90
54876;BME280;40764;48.472;8.166;2023-04-29T18:34:23;98326.69;;;13.77;84.40
54876;BME280;40764;48.472;8.166;2023-04-29T18:40:23;98327.09;;;13.61;85.97
54876;BME280;40764;48.472;8.166;2023-04-29T18:46:24;98334.84;;;13.59;86.65
54876;BME280;40764;48.472;8.166;2023-04-29T18:52:24;98344.53;;;13.43;86.12
54876;BME280;40764;48.472;8.166;2023-04-29T18:58:25;98347.63;;;13.28;87.91
54876;BME280;40764;48.472;8.166;2023-04-29T19:04:26;98361.25;;;13.33;87.44
54876;BME280;40764;48.472;8.166;2023-04-29T19:10:26;98359.25;;;13.11;91.04
54876;BME280;40764;48.472;8.166;2023-04-29T19:16:27;98369.53;;;13.06;93.21
54876;BME280;40764;48.472;8.166;2023-04-29T19:22:27;98376.03;;;12.82;96.38
54876;BME280;40764;48.472;8.166;2023-04-29T19:28:28;98380.41;;;12.83;96.38
54876;BME280;40764;48.472;8.166;2023-04-29T19:34:28;98376.25;;;12.86;94.40
54876;BME280;40764;48.472;8.166;2023-04-29T19:40:29;98382.13;;;12.79;96.74
54876;BME280;40764;48.472;8.166;2023-04-29T19:46:29;98383.44;;;12.95;94.30
54876;BME280;40764;48.472;8.166;2023-04-29T19:52:30;98389.75;;;12.68;97.41
54876;BME280;40764;48.472;8.166;2023-04-29T19:58:30;98390.88;;;12.81;96.84
54876;BME280;40764;48.472;8.166;2023-04-29T20:04:31;98391.97;;;12.94;95.17
54876;BME280;40764;48.472;8.166;2023-04-29T20:10:31;98395.44;;;12.72;96.46
54876;BME280;40764;48.472;8.166;2023-04-29T20:16:32;98400.00;;;12.63;97.22
54876;BME280;40764;48.472;8.166;2023-04-29T20:22:34;98395.94;;;12.60;96.13
54876;BME280;40764;48.472;8.166;2023-04-29T20:28:34;98397.16;;;12.82;84.01
54876;BME280;40764;48.472;8.166;2023-04-29T20:34:35;98400.41;;;12.70;89.80
54876;BME280;40764;48.472;8.166;2023-04-29T20:40:35;98393.19;;;12.60;94.86
54876;BME280;40764;48.472;8.166;2023-04-29T20:46:36;98403.47;;;12.55;96.57
54876;BME280;40764;48.472;8.166;2023-04-29T20:52:37;98398.06;;;12.63;97.10
54876;BME280;40764;48.472;8.166;2023-04-29T20:58:37;98403.03;;;12.48;96.22
54876;BME280;40764;48.472;8.166;2023-04-29T21:04:37;98412.66;;;12.31;99.41
54876;BME280;40764;48.472;8.166;2023-04-29T21:10:38;98413.25;;;12.28;98.96
54876;BME280;40764;48.472;8.166;2023-04-29T21:16:39;98411.94;;;12.26;99.98
54876;BME280;40764;48.472;8.166;2023-04-29T21:22:39;98406.97;;;12.28;98.71
54876;BME280;40764;48.472;8.166;2023-04-29T21:28:40;98404.91;;;12.20;100.00
54876;BME280;40764;48.472;8.166;2023-04-29T21:34:40;98404.78;;;12.44;95.25
54876;BME280;40764;48.472;8.166;2023-04-29T21:40:41;98414.50;;;12.03;97.79
54876;BME280;40764;48.472;8.166;2023-04-29T21:46:42;98416.69;;;12.20;96.67
54876;BME280;40764;48.472;8.166;2023-04-29T21:52:43;98409.38;;;12.16;94.38
54876;BME280;40764;48.472;8.166;2023-04-29T21:58:43;98412.13;;;12.29;94.16
54876;BME280;40764;48.472;8.166;2023-04-29T22:04:44;98417.88;;;12.14;96.21
54876;BME280;40764;48.472;8.166;2023-04-29T22:10:45;98420.47;;;11.92;98.83
54876;BME280;40764;48.472;8.166;2023-04-29T22:16:45;98423.50;;;11.90;99.86
54876;BME280;40764;48.472;8.166;2023-04-29T22:22:46;98411.31;;;11.77;100.00
54876;BME280;40764;48.472;8.166;2023-04-29T22:28:46;98420.81;;;11.66;100.00
54876;BME280;40764;48.472;8.166;2023-04-29T22:34:47;98423.84;;;11.65;100.00
54876;BME280;40764;48.472;8.166;2023-04-29T22:40:48;98435.84;;;11.69;99.97
54876;BME280;40764;48.472;8.166;2023-04-29T22:46:49;98435.97;;;11.77;100.00
54876;BME280;40764;48.472;8.166;2023-04-29T22:52:49;98435.09;;;11.82;99.44
54876;BME280;40764;48.472;8.166;2023-04-29T22:58:50;98432.22;;;11.73;100.00
54876;BME280;40764;48.472;8.166;2023-04-29T23:04:50;98435.09;;;11.63;100.00
54876;BME280;40764;48.472;8.166;2023-04-29T23:10:51;98441.31;;;11.69;100.00
54876;BME280;40764;48.472;8.166;2023-04-29T23:16:51;98446.50;;;11.70;100.00
54876;BME280;40764;48.472;8.166;2023-04-29T23:22:52;98449.00;;;11.67;100.00
54876;BME280;40764;48.472;8.166;2023-04-29T23:28:52;98457.44;;;11.52;100.00
54876;BME280;40764;48.472;8.166;2023-04-29T23:34:53;98454.78;;;11.46;100.00
54876;BME280;40764;48.472;8.166;2023-04-29T23:40:53;98443.97;;;11.36;100.00
54876;BME280;40764;48.472;8.166;2023-04-29T23:46:53;98444.56;;;11.52;100.00
54876;BME280;40764;48.472;8.166;2023-04-29T23:52:54;98450.25;;;11.56;100.00
54876;BME280;40764;48.472;8.166;2023-04-29T23:58:54;98441.91;;;11.47;100.00
